Time;durP1;ratioP1;P1;durP2;ratioP2;P2;SDS_P1;SDS_P2;PMS_P1;PMS_P2;Temp;Humidity;BMP_temperature;BMP_pressure;BME280_temperature;BME280_humidity;BME280_pressure;Samples;Min_cycle;Max_cycle;Signal;HPM_P1;HPM_P2
2024/01/14 00:00:43;;;;;;;1.33;0.73;;;;;;;;;;5010531;28;20026;-69
2024/01/14 00:03:09;;;;;;;3.15;0.90;;;;;;;;;;5011092;28;20479;-70
2024/01/14 00:05:35;;;;;;;5.03;1.15;;;;;;;;;;5011423;28;20033;-70
2024/01/14 00:08:02;;;;;;;3.90;1.00;;;;;;;;;;5011331;28;20034;-70
2024/01/14 00:10:28;;;;;;;4.45;1.15;;;;;;;;;;5010386;28;20499;-70
2024/01/14 00:12:54;;;;;;;10.02;1.52;;;;;;;;;;5011153;28;20026;-70
2024/01/14 00:15:20;;;;;;;4.20;1.08;;;;;;;;;;5011358;28;20022;-70
2024/01/14 00:17:46;;;;;;;4.00;0.93;;;;;;;;;;5010906;28;20442;-70
2024/01/14 00:20:12;;;;;;;2.38;0.70;;;;;;;;;;5010437;28;20499;-70
2024/01/14 00:22:42;;;;;;;6.57;1.35;;;;;;;;;;5011078;28;20022;-69
2024/01/14 00:25:11;;;;;;;2.42;0.95;;;;;;;;;;5011144;28;20097;-70
2024/01/14 00:27:38;;;;;;;1.20;0.70;;;;;;;;;;5011044;28;20050;-70
2024/01/14 00:30:07;;;;;;;2.30;0.80;;;;;;;;;;5010446;28;20029;-70
2024/01/14 00:32:33;;;;;;;0.80;0.60;;;;;;;;;;5010856;28;20026;-70
2024/01/14 00:34:59;;;;;;;2.33;0.95;;;;;;;;;;5011724;28;20033;-70
2024/01/14 00:37:26;;;;;;;1.65;0.73;;;;;;;;;;5011498;28;20391;-70
2024/01/14 00:39:55;;;;;;;1.10;0.70;;;;;;;;;;5023678;28;20115;-70
2024/01/14 00:42:21;;;;;;;2.78;0.65;;;;;;;;;;5026556;28;20082;-70
2024/01/14 00:44:47;;;;;;;0.93;0.73;;;;;;;;;;5026258;28;20033;-70
2024/01/14 00:47:19;;;;;;;1.95;0.85;;;;;;;;;;5030330;28;20030;-70
2024/01/14 00:49:45;;;;;;;2.85;0.70;;;;;;;;;;5030718;28;20017;-69
2024/01/14 00:52:11;;;;;;;1.05;0.63;;;;;;;;;;5029207;28;20029;-70
2024/01/14 00:54:37;;;;;;;4.05;0.90;;;;;;;;;;5026326;28;20038;-70
2024/01/14 00:57:07;;;;;;;1.40;0.45;;;;;;;;;;5025646;28;20030;-70
2024/01/14 00:59:34;;;;;;;0.65;0.50;;;;;;;;;;5025383;28;20034;-69
2024/01/14 01:02:03;;;;;;;3.58;0.77;;;;;;;;;;5017743;28;20541;-69
2024/01/14 01:04:29;;;;;;;2.05;0.60;;;;;;;;;;5014380;28;20101;-69
2024/01/14 01:06:55;;;;;;;1.10;0.68;;;;;;;;;;5014098;28;20057;-69
2024/01/14 01:09:22;;;;;;;0.90;0.60;;;;;;;;;;5013998;28;20026;-69
2024/01/14 01:11:48;;;;;;;1.50;0.70;;;;;;;;;;5013549;28;20738;-69
2024/01/14 01:14:15;;;;;;;1.15;0.70;;;;;;;;;;5013899;28;20044;-69
2024/01/14 01:16:41;;;;;;;0.80;0.45;;;;;;;;;;5014150;28;20026;-69
2024/01/14 01:19:07;;;;;;;0.65;0.60;;;;;;;;;;5014053;28;20036;-69
2024/01/14 01:21:33;;;;;;;0.80;0.80;;;;;;;;;;5013337;28;20033;-69
2024/01/14 01:23:59;;;;;;;1.52;0.50;;;;;;;;;;5013757;28;20022;-68
2024/01/14 01:26:25;;;;;;;1.05;0.57;;;;;;;;;;5013699;28;20072;-68
2024/01/14 01:28:51;;;;;;;2.10;0.63;;;;;;;;;;5013795;28;20486;-68
2024/01/14 01:31:18;;;;;;;1.15;0.52;;;;;;;;;;5012936;28;20107;-68
2024/01/14 01:33:44;;;;;;;2.60;0.52;;;;;;;;;;5013520;28;20092;-68
2024/01/14 01:36:10;;;;;;;0.88;0.43;;;;;;;;;;5013527;28;20018;-68
2024/01/14 01:38:36;;;;;;;0.88;0.60;;;;;;;;;;5012269;28;20026;-68
2024/01/14 01:41:03;;;;;;;1.55;0.40;;;;;;;;;;5012811;28;20399;-69
2024/01/14 01:43:29;;;;;;;1.73;0.70;;;;;;;;;;5013389;28;20463;-68
2024/01/14 01:45:56;;;;;;;1.40;0.60;;;;;;;;;;5013591;28;20044;-68
2024/01/14 01:48:22;;;;;;;1.00;0.63;;;;;;;;;;5013605;28;20030;-68
2024/01/14 01:50:49;;;;;;;0.30;0.30;;;;;;;;;;5011507;28;20026;-68
2024/01/14 01:53:22;;;;;;;0.70;0.38;;;;;;;;;;5013451;28;20050;-70
2024/01/14 01:55:48;;;;;;;2.38;0.65;;;;;;;;;;5013171;28;20026;-70
2024/01/14 01:58:14;;;;;;;2.60;0.52;;;;;;;;;;5013780;28;20025;-70
2024/01/14 02:00:43;;;;;;;1.88;0.80;;;;;;;;;;5012577;28;20402;-70
2024/01/14 02:03:09;;;;;;;1.42;0.55;;;;;;;;;;5013389;28;20101;-71
2024/01/14 02:05:39;;;;;;;1.80;0.55;;;;;;;;;;5013179;28;20399;-70
2024/01/14 02:08:09;;;;;;;0.75;0.45;;;;;;;;;;5013157;28;20395;-70
2024/01/14 02:10:38;;;;;;;2.55;0.40;;;;;;;;;;5012346;28;20100;-69
2024/01/14 02:13:05;;;;;;;1.27;0.82;;;;;;;;;;5012744;28;20514;-70
2024/01/14 02:15:31;;;;;;;2.05;0.43;;;;;;;;;;5012844;28;20040;-70
2024/01/14 02:17:57;;;;;;;0.77;0.50;;;;;;;;;;5012823;28;20105;-70
2024/01/14 02:20:23;;;;;;;1.85;0.50;;;;;;;;;;5012220;28;20105;-70
2024/01/14 02:22:51;;;;;;;1.80;0.60;;;;;;;;;;5011348;28;20117;-69
2024/01/14 02:25:20;;;;;;;2.33;0.47;;;;;;;;;;5012728;28;20029;-70
2024/01/14 02:27:47;;;;;;;5.32;0.50;;;;;;;;;;5012613;28;20030;-70
2024/01/14 02:30:14;;;;;;;1.27;0.60;;;;;;;;;;5011966;28;20423;-70
2024/01/14 02:32:40;;;;;;;2.53;0.70;;;;;;;;;;5012566;28;20108;-70
2024/01/14 02:35:06;;;;;;;1.40;0.57;;;;;;;;;;5012447;28;20026;-70
2024/01/14 02:37:33;;;;;;;3.38;0.65;;;;;;;;;;5012395;28;20022;-70
2024/01/14 02:40:02;;;;;;;0.35;0.32;;;;;;;;;;5011797;28;20017;-69
2024/01/14 02:42:28;;;;;;;1.27;0.43;;;;;;;;;;5012349;28;20396;-70
2024/01/14 02:45:00;;;;;;;0.28;0.20;;;;;;;;;;5012537;28;20546;-71
2024/01/14 02:47:26;;;;;;;0.73;0.40;;;;;;;;;;5012112;28;20020;-70
2024/01/14 02:49:52;;;;;;;3.40;0.55;;;;;;;;;;5011695;28;20040;-70
2024/01/14 02:52:18;;;;;;;2.92;0.73;;;;;;;;;;5012328;28;20495;-70
2024/01/14 02:54:45;;;;;;;1.67;0.40;;;;;;;;;;5012048;28;20030;-68
2024/01/14 02:57:11;;;;;;;2.40;0.50;;;;;;;;;;5012907;28;20072;-70
2024/01/14 02:59:37;;;;;;;0.88;0.30;;;;;;;;;;5011945;28;20496;-70
2024/01/14 03:02:07;;;;;;;0.30;0.30;;;;;;;;;;5011864;28;20109;-70
2024/01/14 03:04:33;;;;;;;0.40;0.30;;;;;;;;;;5011949;28;20050;-70
2024/01/14 03:07:05;;;;;;;0.40;0.30;;;;;;;;;;5012023;28;20026;-71
2024/01/14 03:09:37;;;;;;;0.70;0.32;;;;;;;;;;5011880;28;20475;-70
2024/01/14 03:12:06;;;;;;;1.95;0.40;;;;;;;;;;5011829;28;20030;-69
2024/01/14 03:14:32;;;;;;;2.25;0.50;;;;;;;;;;5011718;28;20491;-70
2024/01/14 03:16:59;;;;;;;2.45;0.73;;;;;;;;;;5011724;28;20029;-69
2024/01/14 03:19:25;;;;;;;1.40;0.40;;;;;;;;;;5011843;28;20061;-70
2024/01/14 03:21:53;;;;;;;1.50;0.22;;;;;;;;;;5011157;28;20026;-68
2024/01/14 03:24:19;;;;;;;7.82;0.73;;;;;;;;;;5011831;28;20029;-70
2024/01/14 03:26:46;;;;;;;12.90;0.93;;;;;;;;;;5011716;28;20030;-68
2024/01/14 03:29:15;;;;;;;3.42;0.68;;;;;;;;;;5011673;28;20034;-71
2024/01/14 03:31:44;;;;;;;16.58;0.95;;;;;;;;;;5010892;28;20033;-69
2024/01/14 03:34:13;;;;;;;2.67;0.50;;;;;;;;;;5011709;28;20402;-69
2024/01/14 03:36:39;;;;;;;8.77;1.02;;;;;;;;;;5011492;28;20018;-69
2024/01/14 03:39:06;;;;;;;8.93;0.55;;;;;;;;;;5011506;28;20022;-69
2024/01/14 03:41:32;;;;;;;2.95;0.50;;;;;;;;;;5010834;28;20068;-67
2024/01/14 03:43:58;;;;;;;4.43;0.77;;;;;;;;;;5011399;28;20022;-67
2024/01/14 03:46:24;;;;;;;4.15;0.73;;;;;;;;;;5011451;28;20535;-68
2024/01/14 03:48:50;;;;;;;3.05;0.57;;;;;;;;;;5011401;28;20033;-69
2024/01/14 03:51:16;;;;;;;2.90;0.85;;;;;;;;;;5010891;28;20044;-68
2024/01/14 03:53:42;;;;;;;0.82;0.70;;;;;;;;;;5011435;28;20554;-68
2024/01/14 03:56:08;;;;;;;1.20;0.35;;;;;;;;;;5011117;28;20510;-69
2024/01/14 03:58:35;;;;;;;9.95;0.70;;;;;;;;;;5011184;28;20720;-69
2024/01/14 04:01:01;;;;;;;0.77;0.47;;;;;;;;;;5009195;28;20026;-69
2024/01/14 04:03:27;;;;;;;6.28;0.65;;;;;;;;;;5011440;28;20029;-69
2024/01/14 04:05:53;;;;;;;1.30;0.63;;;;;;;;;;5011095;28;20030;-69
2024/01/14 04:08:19;;;;;;;6.60;0.75;;;;;;;;;;5011239;28;20030;-68
2024/01/14 04:10:45;;;;;;;2.88;0.52;;;;;;;;;;5010449;28;20521;-68
2024/01/14 04:13:11;;;;;;;14.48;0.90;;;;;;;;;;5010962;28;20033;-69
2024/01/14 04:15:37;;;;;;;10.57;0.70;;;;;;;;;;5014958;28;20026;-69
2024/01/14 04:18:03;;;;;;;1.77;0.70;;;;;;;;;;5013803;28;20054;-69
2024/01/14 04:20:29;;;;;;;2.05;0.30;;;;;;;;;;5014364;28;20033;-69
2024/01/14 04:22:55;;;;;;;2.33;0.38;;;;;;;;;;5013985;28;20555;-69
2024/01/14 04:25:21;;;;;;;5.05;0.75;;;;;;;;;;5015165;28;20038;-69
2024/01/14 04:27:47;;;;;;;2.60;0.43;;;;;;;;;;5014928;28;20545;-68
2024/01/14 04:30:13;;;;;;;1.17;0.50;;;;;;;;;;5014384;28;20029;-68
2024/01/14 04:32:39;;;;;;;1.83;0.40;;;;;;;;;;5014947;28;20026;-69
2024/01/14 04:35:05;;;;;;;1.83;0.70;;;;;;;;;;5014778;28;20543;-68
2024/01/14 04:37:32;;;;;;;1.30;0.28;;;;;;;;;;5015095;28;20022;-68
2024/01/14 04:39:58;;;;;;;4.68;0.50;;;;;;;;;;5014010;28;20437;-68
2024/01/14 04:42:24;;;;;;;2.30;0.40;;;;;;;;;;5014635;28;20076;-69
2024/01/14 04:44:50;;;;;;;1.33;0.38;;;;;;;;;;5014726;28;20105;-69
2024/01/14 04:47:16;;;;;;;1.33;0.45;;;;;;;;;;5014737;28;20093;-68
2024/01/14 04:49:42;;;;;;;1.92;0.47;;;;;;;;;;5013923;28;20169;-68
2024/01/14 04:52:08;;;;;;;1.35;0.50;;;;;;;;;;5014701;28;20030;-68
2024/01/14 04:54:34;;;;;;;5.43;0.60;;;;;;;;;;5014764;28;20077;-68
2024/01/14 04:57:01;;;;;;;1.88;0.40;;;;;;;;;;5014458;28;20064;-68
2024/01/14 04:59:27;;;;;;;0.98;0.52;;;;;;;;;;5014401;28;20534;-68
2024/01/14 05:01:53;;;;;;;3.08;0.65;;;;;;;;;;5014239;28;20029;-68
2024/01/14 05:04:19;;;;;;;0.35;0.28;;;;;;;;;;5015076;28;20077;-68
2024/01/14 05:06:45;;;;;;;0.50;0.28;;;;;;;;;;5015999;28;20113;-69
2024/01/14 05:09:11;;;;;;;0.80;0.28;;;;;;;;;;5016856;28;20034;-69
2024/01/14 05:11:37;;;;;;;0.90;0.40;;;;;;;;;;5014326;28;20030;-67
2024/01/14 05:14:03;;;;;;;1.45;0.30;;;;;;;;;;5016582;28;20034;-68
2024/01/14 05:16:29;;;;;;;1.25;0.70;;;;;;;;;;5023262;28;20022;-68
2024/01/14 05:18:56;;;;;;;3.90;0.32;;;;;;;;;;5025059;28;20040;-68
2024/01/14 05:21:22;;;;;;;0.65;0.55;;;;;;;;;;5026014;28;20045;-69
2024/01/14 05:23:48;;;;;;;1.10;0.35;;;;;;;;;;5026183;28;20053;-68
2024/01/14 05:26:14;;;;;;;1.83;0.38;;;;;;;;;;5026268;28;20037;-69
2024/01/14 05:28:40;;;;;;;1.30;0.22;;;;;;;;;;5037552;28;20072;-69
2024/01/14 05:31:06;;;;;;;0.40;0.20;;;;;;;;;;5030399;28;20026;-70
2024/01/14 05:33:32;;;;;;;2.13;0.35;;;;;;;;;;5030469;28;20022;-70
2024/01/14 05:35:58;;;;;;;1.83;0.30;;;;;;;;;;5032395;28;20028;-69
2024/01/14 05:38:24;;;;;;;2.00;0.20;;;;;;;;;;5027562;28;20048;-69
2024/01/14 05:40:50;;;;;;;12.65;1.50;;;;;;;;;;5017866;28;20018;-69
2024/01/14 05:43:16;;;;;;;11.15;1.10;;;;;;;;;;5013901;28;20387;-69
2024/01/14 05:45:42;;;;;;;1.50;0.30;;;;;;;;;;5012242;28;20129;-70
2024/01/14 05:48:08;;;;;;;2.65;0.73;;;;;;;;;;5013540;28;20037;-68
2024/01/14 05:50:34;;;;;;;10.32;0.80;;;;;;;;;;5012764;28;20022;-68
2024/01/14 05:53:00;;;;;;;4.30;0.77;;;;;;;;;;5013251;28;20056;-68
2024/01/14 05:55:26;;;;;;;7.07;1.02;;;;;;;;;;5013105;28;20054;-69
2024/01/14 05:57:52;;;;;;;7.78;0.63;;;;;;;;;;5012747;28;20127;-69
2024/01/14 06:00:22;;;;;;;4.45;0.50;;;;;;;;;;5012649;28;20120;-69
2024/01/14 06:02:48;;;;;;;5.97;0.60;;;;;;;;;;5013272;28;20116;-69
2024/01/14 06:05:15;;;;;;;7.15;1.00;;;;;;;;;;5013173;28;20072;-69
2024/01/14 06:07:41;;;;;;;5.07;0.85;;;;;;;;;;5013031;28;20018;-68
2024/01/14 06:10:07;;;;;;;1.88;0.43;;;;;;;;;;5012322;28;20084;-69
2024/01/14 06:12:33;;;;;;;5.47;0.95;;;;;;;;;;5013145;28;20076;-68
2024/01/14 06:14:59;;;;;;;4.68;1.35;;;;;;;;;;5012929;28;20030;-69
2024/01/14 06:17:25;;;;;;;2.80;0.73;;;;;;;;;;5013102;28;20061;-69
2024/01/14 06:19:51;;;;;;;0.70;0.20;;;;;;;;;;5012054;28;20723;-69
2024/01/14 06:22:17;;;;;;;3.13;0.30;;;;;;;;;;5013021;28;20030;-69
2024/01/14 06:24:47;;;;;;;4.88;0.82;;;;;;;;;;5011652;28;20080;-69
2024/01/14 06:27:13;;;;;;;3.65;0.40;;;;;;;;;;5013051;28;20030;-70
2024/01/14 06:29:40;;;;;;;1.65;0.40;;;;;;;;;;5012071;28;20033;-69
2024/01/14 06:32:06;;;;;;;1.20;0.30;;;;;;;;;;5012808;28;20034;-70
2024/01/14 06:34:32;;;;;;;2.47;0.35;;;;;;;;;;5012876;28;20152;-70
2024/01/14 06:36:58;;;;;;;0.50;0.10;;;;;;;;;;5011745;28;20021;-69
2024/01/14 06:39:24;;;;;;;0.98;0.30;;;;;;;;;;5012234;28;20022;-68
2024/01/14 06:41:52;;;;;;;0.43;0.20;;;;;;;;;;5012139;28;20032;-69
2024/01/14 06:44:18;;;;;;;1.00;0.10;;;;;;;;;;5012567;28;20037;-69
2024/01/14 06:46:44;;;;;;;2.83;0.60;;;;;;;;;;5012326;28;20034;-68
2024/01/14 06:49:10;;;;;;;7.88;1.10;;;;;;;;;;5012292;28;20487;-67
2024/01/14 06:51:46;;;;;;;1.02;0.30;;;;;;;;;;5011632;28;20120;-68
2024/01/14 06:54:17;;;;;;;0.28;0.20;;;;;;;;;;5012232;28;20109;-67
2024/01/14 06:56:47;;;;;;;2.38;0.20;;;;;;;;;;5011995;28;20101;-67
2024/01/14 06:59:18;;;;;;;2.53;0.50;;;;;;;;;;5012148;28;20024;-68
2024/01/14 07:01:44;;;;;;;2.03;0.47;;;;;;;;;;5011618;28;20080;-68
2024/01/14 07:04:10;;;;;;;1.75;0.57;;;;;;;;;;5011063;28;20038;-68
2024/01/14 07:06:36;;;;;;;0.35;0.32;;;;;;;;;;5012144;28;20029;-69
2024/01/14 07:09:10;;;;;;;2.05;0.40;;;;;;;;;;5012369;28;20450;-68
2024/01/14 07:11:36;;;;;;;1.33;0.20;;;;;;;;;;5009854;28;20117;-68
2024/01/14 07:14:02;;;;;;;0.25;0.13;;;;;;;;;;5011958;28;20372;-68
2024/01/14 07:16:28;;;;;;;0.55;0.20;;;;;;;;;;5011736;28;20045;-68
2024/01/14 07:18:54;;;;;;;2.83;0.30;;;;;;;;;;5011885;28;20064;-67
2024/01/14 07:21:23;;;;;;;1.75;0.30;;;;;;;;;;5011220;28;20049;-69
2024/01/14 07:23:50;;;;;;;4.80;0.40;;;;;;;;;;5011156;28;20167;-68
2024/01/14 07:26:16;;;;;;;1.85;0.32;;;;;;;;;;5011854;28;20029;-69
2024/01/14 07:28:42;;;;;;;2.08;0.40;;;;;;;;;;5011829;28;20121;-69
2024/01/14 07:31:09;;;;;;;2.63;0.50;;;;;;;;;;5011050;28;20021;-69
2024/01/14 07:33:36;;;;;;;2.28;0.30;;;;;;;;;;5011986;28;20037;-70
2024/01/14 07:36:05;;;;;;;2.80;0.50;;;;;;;;;;5011759;28;20053;-70
2024/01/14 07:38:31;;;;;;;6.40;1.23;;;;;;;;;;5012038;28;20105;-69
2024/01/14 07:40:57;;;;;;;9.70;0.90;;;;;;;;;;5011099;28;20136;-69
2024/01/14 07:43:23;;;;;;;9.35;1.23;;;;;;;;;;5011609;28;20029;-69
2024/01/14 07:45:50;;;;;;;13.65;1.40;;;;;;;;;;5011405;28;20080;-67
2024/01/14 07:48:16;;;;;;;18.65;2.08;;;;;;;;;;5011667;28;20026;-69
2024/01/14 07:50:42;;;;;;;8.20;0.98;;;;;;;;;;5010646;28;20030;-66
2024/01/14 07:53:09;;;;;;;10.90;1.67;;;;;;;;;;5009958;28;20585;-67
2024/01/14 07:55:35;;;;;;;15.48;1.55;;;;;;;;;;5011461;28;20030;-67
2024/01/14 07:58:01;;;;;;;19.17;1.65;;;;;;;;;;5011026;28;20064;-65
2024/01/14 08:00:27;;;;;;;6.88;1.17;;;;;;;;;;5010364;28;20041;-66
2024/01/14 08:02:53;;;;;;;10.00;1.27;;;;;;;;;;5011438;28;20026;-66
2024/01/14 08:05:19;;;;;;;8.98;1.45;;;;;;;;;;5011114;28;20029;-66
2024/01/14 08:07:45;;;;;;;12.82;1.73;;;;;;;;;;5011072;28;20096;-66
2024/01/14 08:10:12;;;;;;;9.20;1.25;;;;;;;;;;5010584;28;20185;-66
2024/01/14 08:12:38;;;;;;;10.25;0.93;;;;;;;;;;5011270;28;20079;-67
2024/01/14 08:15:04;;;;;;;4.80;1.13;;;;;;;;;;5011219;28;20033;-66
2024/01/14 08:17:30;;;;;;;4.25;1.23;;;;;;;;;;5010016;28;20026;-66
2024/01/14 08:19:56;;;;;;;6.68;0.93;;;;;;;;;;5010699;28;20018;-66
2024/01/14 08:22:22;;;;;;;11.80;1.13;;;;;;;;;;5011365;28;20380;-67
2024/01/14 08:24:48;;;;;;;7.00;1.25;;;;;;;;;;5011339;28;20411;-66
2024/01/14 08:27:15;;;;;;;5.65;1.30;;;;;;;;;;5009972;28;20026;-66
2024/01/14 08:29:41;;;;;;;6.05;1.13;;;;;;;;;;5010610;28;20065;-66
2024/01/14 08:32:07;;;;;;;9.98;5.25;;;;;;;;;;5011085;28;20057;-65
2024/01/14 08:34:33;;;;;;;7.13;6.40;;;;;;;;;;5011046;28;20502;-66
2024/01/14 08:36:59;;;;;;;6.55;5.72;;;;;;;;;;5011097;28;20380;-65
2024/01/14 08:39:25;;;;;;;7.70;6.30;;;;;;;;;;5010731;28;20034;-64
2024/01/14 08:41:51;;;;;;;7.20;6.20;;;;;;;;;;5010514;28;20034;-64
2024/01/14 08:44:17;;;;;;;6.63;5.80;;;13.50;50.70;;;;;;5011072;28;20699;-65
2024/01/14 08:46:44;;;;;;;8.68;6.45;;;13.20;50.70;;;;;;5010147;28;20037;-65
2024/01/14 08:49:10;;;;;;;7.28;6.03;;;12.80;51.20;;;;;;5010947;28;20030;-65
2024/01/14 08:51:38;;;;;;;22.95;6.93;;;12.40;51.50;;;;;;5009361;28;20076;-68
2024/01/14 08:54:03;;;;;;;6.90;5.03;;;12.30;54.50;;;;;;5011071;28;20026;-69
2024/01/14 08:56:29;;;;;;;8.43;5.13;;;12.80;61.80;;;;;;5011972;28;20030;-67
2024/01/14 08:58:56;;;;;;;6.57;4.70;;;13.30;65.20;;;;;;5011345;28;20022;-67
2024/01/14 09:01:22;;;;;;;16.05;4.03;;;13.70;66.60;;;;;;5014327;28;20133;-67
2024/01/14 09:03:48;;;;;;;4.05;3.65;;;14.20;67.00;;;;;;5015052;28;20085;-65
2024/01/14 09:06:14;;;;;;;4.30;3.42;;;14.60;67.20;;;;;;5014686;28;20034;-67
2024/01/14 09:08:43;;;;;;;3.92;2.75;;;15.00;67.10;;;;;;5015211;28;20406;-68
2024/01/14 09:11:36;;;;;;;2.95;2.28;;;15.40;66.80;;;;;;5014239;28;20034;-68
2024/01/14 09:17:21;;;;;;;2.30;2.10;;;16.00;66.00;;;;;;5012311;28;20031;-68
2024/01/14 09:19:47;;;;;;;2.63;2.42;;;16.30;65.70;;;;;;5013730;28;20037;-68
2024/01/14 09:22:12;;;;;;;2.45;2.10;;;16.50;65.40;;;;;;5014657;28;20018;-68
2024/01/14 09:24:43;;;;;;;4.60;1.90;;;16.60;65.20;;;;;;5014998;28;20071;-69
2024/01/14 09:27:09;;;;;;;2.92;2.03;;;16.80;65.60;;;;;;5015008;28;20079;-68
2024/01/14 09:29:35;;;;;;;4.55;1.90;;;17.00;65.70;;;;;;5013702;28;20454;-69
2024/01/14 09:32:00;;;;;;;5.90;1.75;;;17.10;65.80;;;;;;5013679;28;20491;-68
2024/01/14 09:34:26;;;;;;;2.25;1.75;;;17.20;65.90;;;;;;5013964;28;20034;-69
2024/01/14 09:36:51;;;;;;;1.27;1.17;;;17.30;65.50;;;;;;5013555;28;20037;-68
2024/01/14 09:39:17;;;;;;;1.58;1.20;;;17.40;65.20;;;;;;5013864;28;20032;-68
2024/01/14 09:41:51;;;;;;;3.40;1.55;;;17.50;65.00;;;;;;5013320;28;20029;-69
2024/01/14 09:44:17;;;;;;;3.85;1.65;;;17.50;64.90;;;;;;5013998;28;20034;-69
2024/01/14 09:46:45;;;;;;;1.80;1.33;;;17.60;64.90;;;;;;5013864;28;20030;-68
2024/01/14 09:49:16;;;;;;;1.17;0.85;;;17.60;64.80;;;;;;5013832;28;20049;-68
2024/01/14 09:51:42;;;;;;;2.08;1.20;;;17.70;64.80;;;;;;5014676;28;20561;-69
2024/01/14 09:54:07;;;;;;;11.93;1.10;;;17.70;64.70;;;;;;5013047;28;20037;-68
2024/01/14 09:56:37;;;;;;;2.00;0.75;;;17.70;64.70;;;;;;5013510;28;20081;-68
2024/01/14 09:59:03;;;;;;;1.20;0.95;;;17.70;64.70;;;;;;5013886;28;20052;-69
2024/01/14 10:01:31;;;;;;;3.00;1.20;;;17.80;64.70;;;;;;5013249;28;20033;-69
2024/01/14 10:04:00;;;;;;;1.42;0.82;;;17.80;64.70;;;;;;5014240;28;20022;-69
2024/01/14 10:06:27;;;;;;;1.55;0.80;;;17.80;64.70;;;;;;5015192;28;20069;-68
2024/01/14 10:08:53;;;;;;;5.10;1.20;;;17.90;64.70;;;;;;5019223;28;20022;-68
2024/01/14 10:11:18;;;;;;;2.35;0.90;;;17.90;64.70;;;;;;5020595;28;20036;-69
2024/01/14 10:13:44;;;;;;;2.28;0.77;;;17.90;64.70;;;;;;5021233;28;20045;-68
2024/01/14 10:16:13;;;;;;;2.35;0.65;;;17.90;64.70;;;;;;5021449;28;20028;-69
2024/01/14 10:18:42;;;;;;;1.15;0.70;;;18.00;64.70;;;;;;5023424;28;20414;-69
2024/01/14 10:21:09;;;;;;;0.98;0.70;;;18.00;64.70;;;;;;5022052;28;20091;-68
2024/01/14 10:23:36;;;;;;;1.02;0.85;;;18.00;64.70;;;;;;5022939;28;20022;-68
2024/01/14 10:26:02;;;;;;;1.60;0.85;;;18.00;64.70;;;;;;5022240;28;20022;-69
2024/01/14 10:28:38;;;;;;;1.92;1.10;;;18.00;64.70;;;;;;5022601;28;20026;-69
2024/01/14 10:31:08;;;;;;;1.13;0.60;;;18.00;64.80;;;;;;5021075;28;20022;-69
2024/01/14 10:33:35;;;;;;;6.18;1.75;;;18.00;64.90;;;;;;5026339;28;20030;-69
2024/01/14 10:36:08;;;;;;;4.35;1.58;;;18.00;66.60;;;;;;5014182;28;20018;-68
2024/01/14 10:38:38;;;;;;;5.65;1.42;;;18.00;66.70;;;;;;5012962;28;20026;-69
2024/01/14 10:41:04;;;;;;;10.50;1.50;;;18.00;66.70;;;;;;5012336;28;20026;-69
2024/01/14 10:43:32;;;;;;;5.97;1.17;;;18.00;66.80;;;;;;5012418;28;20037;-68
2024/01/14 10:45:59;;;;;;;8.60;2.05;;;18.00;66.80;;;;;;5012137;28;20511;-68
2024/01/14 10:48:29;;;;;;;11.30;2.10;;;18.10;67.60;;;;;;5012199;28;20118;-68
2024/01/14 10:51:07;;;;;;;15.55;2.28;;;18.10;67.80;;;;;;5011292;28;20026;-68
2024/01/14 10:54:13;;;;;;;5.28;1.75;;;18.10;67.70;;;;;;5012091;28;20030;-69
2024/01/14 10:56:48;;;;;;;7.45;1.73;;;18.20;67.70;;;;;;5011790;28;20125;-68
2024/01/14 10:59:16;;;;;;;5.85;1.58;;;;;;;;;;5012123;28;20119;-68
2024/01/14 11:01:49;;;;;;;11.18;2.00;;;;;;;;;;5011360;28;20404;-67
2024/01/14 11:04:16;;;;;;;10.05;2.03;;;;;;;;;;5011843;28;20057;-68
2024/01/14 11:06:42;;;;;;;8.50;1.90;;;;;;;;;;5011807;28;20510;-69
2024/01/14 11:09:08;;;;;;;4.97;1.50;;;18.30;67.70;;;;;;5011959;28;20499;-68
2024/01/14 11:11:42;;;;;;;7.78;1.90;;;18.30;67.70;;;;;;5016327;28;20037;-68
2024/01/14 11:14:44;;;;;;;5.65;1.70;;;18.30;67.70;;;;;;5014787;28;20117;-69
2024/01/14 11:17:47;;;;;;;6.38;1.38;;;18.40;67.70;;;;;;5007323;28;20113;-69
2024/01/14 11:20:18;;;;;;;8.07;2.03;;;18.40;67.80;;;;;;5003311;28;20086;-69
2024/01/14 11:22:44;;;;;;;6.50;1.45;;;18.40;68.00;;;;;;5011242;28;20480;-69
2024/01/14 11:25:18;;;;;;;5.20;1.60;;;18.40;68.10;;;;;;5009993;28;20053;-70
2024/01/14 11:27:44;;;;;;;4.20;1.88;;;18.40;68.20;;;;;;4989382;28;20037;-69
2024/01/14 11:30:16;;;;;;;7.30;2.03;;;18.40;68.40;;;;;;4990792;28;20133;-69
2024/01/14 11:32:42;;;;;;;4.53;1.98;;;18.50;68.60;;;;;;4990608;28;20030;-69
2024/01/14 11:35:09;;;;;;;5.45;1.75;;;18.40;68.70;;;;;;4989974;28;20507;-68
2024/01/14 11:37:48;;;;;;;5.97;1.65;;;18.50;68.80;;;;;;4990138;28;20054;-69
2024/01/14 11:40:36;;;;;;;6.40;2.17;;;18.50;68.90;;;;;;4989811;28;20025;-70
2024/01/14 11:43:10;;;;;;;14.38;2.28;;;18.40;69.30;;;;;;4989150;28;20454;-69
2024/01/14 11:45:37;;;;;;;16.83;2.38;;;18.50;69.10;;;;;;4990604;28;20034;-69
2024/01/14 11:48:05;;;;;;;9.15;2.63;;;18.50;69.00;;;;;;4991808;28;20058;-68
2024/01/14 11:50:31;;;;;;;7.20;2.03;;;18.50;69.20;;;;;;4991045;28;20022;-69
2024/01/14 11:53:00;;;;;;;5.95;1.90;;;18.50;69.30;;;;;;4991625;28;20377;-69
2024/01/14 11:55:28;;;;;;;9.00;2.20;;;18.40;69.20;;;;;;4991608;28;20046;-68
2024/01/14 11:57:54;;;;;;;9.13;1.98;;;18.50;69.60;;;;;;4991448;28;20488;-69
2024/01/14 12:00:30;;;;;;;8.27;2.63;;;18.40;69.40;;;;;;4990863;28;20049;-69
2024/01/14 12:03:08;;;;;;;23.60;2.70;;;18.40;69.50;;;;;;4991688;28;20018;-69
2024/01/14 12:05:34;;;;;;;17.58;3.05;;;18.40;69.50;;;;;;4990795;28;20109;-69
2024/01/14 12:08:00;;;;;;;24.45;4.72;;;18.40;70.20;;;;;;4991567;28;20081;-70
2024/01/14 12:10:28;;;;;;;19.90;2.67;;;18.50;70.80;;;;;;4996236;28;20080;-69
2024/01/14 12:12:55;;;;;;;22.02;2.97;;;18.50;70.80;;;;;;5030848;28;20021;-70
2024/01/14 12:15:21;;;;;;;13.15;2.67;;;18.50;70.90;;;;;;5031076;28;20079;-68
2024/01/14 12:17:56;;;;;;;22.73;3.85;;;18.50;70.90;;;;;;5030845;28;20021;-69
2024/01/14 12:20:23;;;;;;;19.52;2.70;;;18.50;71.20;;;;;;5029977;28;20084;-69
2024/01/14 12:22:55;;;;;;;12.43;3.00;;;18.50;71.20;;;;;;5030748;28;20029;-70
2024/01/14 12:25:21;;;;;;;21.20;2.78;;;18.50;71.00;;;;;;5030601;28;20044;-70
2024/01/14 12:27:50;;;;;;;11.52;2.67;;;18.50;70.60;;;;;;5030744;28;20523;-69
2024/01/14 12:30:30;;;;;;;9.85;2.28;;;18.50;70.60;;;;;;5029861;28;20029;-69
2024/01/14 12:32:57;;;;;;;12.35;2.42;;;18.50;70.40;;;;;;5030762;28;20022;-69
2024/01/14 12:35:34;;;;;;;14.52;1.90;;;18.50;70.30;;;;;;5032500;28;20502;-69
2024/01/14 12:38:03;;;;;;;16.00;2.50;;;18.50;70.20;;;;;;5034790;28;20026;-69
2024/01/14 12:40:32;;;;;;;8.65;2.10;;;18.50;70.10;;;;;;5033629;28;20022;-69
2024/01/14 12:42:59;;;;;;;16.10;1.77;;;18.50;70.20;;;;;;5034294;28;20029;-69
2024/01/14 12:45:24;;;;;;;17.52;2.38;;;18.50;70.20;;;;;;5034261;28;20080;-69
2024/01/14 12:48:01;;;;;;;8.88;1.92;;;18.50;70.10;;;;;;5034225;28;20017;-68
2024/01/14 12:50:28;;;;;;;7.10;1.92;;;18.60;70.10;;;;;;5033606;28;20060;-69
2024/01/14 12:53:15;;;;;;;3.22;1.40;;;18.60;70.20;;;;;;5034266;28;20104;-69
2024/01/14 12:55:41;;;;;;;3.83;1.23;;;18.60;70.00;;;;;;5049344;28;20052;-69
2024/01/14 12:58:07;;;;;;;9.10;2.00;;;18.60;70.00;;;;;;5034085;28;20129;-69
2024/01/14 13:00:34;;;;;;;3.95;1.48;;;18.60;70.00;;;;;;5033407;28;20022;-69
2024/01/14 13:03:00;;;;;;;5.65;1.48;;;18.60;69.90;;;;;;5034283;28;20079;-69
2024/01/14 13:05:26;;;;;;;3.65;1.23;;;18.60;69.90;;;;;;5034184;28;20026;-69
2024/01/14 13:07:52;;;;;;;10.38;1.65;;;18.70;69.80;;;;;;5034100;28;20029;-69
2024/01/14 13:10:19;;;;;;;7.47;1.58;;;18.70;69.70;;;;;;5033183;28;20479;-69
2024/01/14 13:12:44;;;;;;;9.43;1.60;;;18.70;69.70;;;;;;5034356;28;20030;-69
2024/01/14 13:15:11;;;;;;;4.00;1.40;;;18.70;69.60;;;;;;5033591;28;20025;-69
2024/01/14 13:17:41;;;;;;;3.45;1.35;;;18.70;69.50;;;;;;5033927;28;20394;-69
2024/01/14 13:20:08;;;;;;;4.53;1.38;;;18.70;69.50;;;;;;5033172;28;20027;-69
2024/01/14 13:22:34;;;;;;;5.47;1.40;;;18.70;69.50;;;;;;5034056;28;20029;-70
2024/01/14 13:25:00;;;;;;;6.82;1.20;;;18.70;69.40;;;;;;5033661;28;20391;-69
2024/01/14 13:27:25;;;;;;;7.13;1.40;;;18.60;69.40;;;;;;5033620;28;20101;-69
2024/01/14 13:29:51;;;;;;;4.68;0.90;;;18.70;69.40;;;;;;5032852;28;20056;-69
2024/01/14 13:32:18;;;;;;;5.03;1.50;;;18.70;69.40;;;;;;5033604;28;20470;-69
2024/01/14 13:34:43;;;;;;;3.97;1.10;;;18.60;69.50;;;;;;5033388;28;20075;-69
2024/01/14 13:37:10;;;;;;;5.18;1.25;;;18.60;69.50;;;;;;5033572;28;20049;-69
2024/01/14 13:39:38;;;;;;;4.07;0.98;;;18.60;69.60;;;;;;5033137;28;20541;-69
2024/01/14 13:42:05;;;;;;;3.85;1.05;;;18.60;69.60;;;;;;5033386;28;20029;-69
2024/01/14 13:44:30;;;;;;;5.30;1.35;;;18.50;69.60;;;;;;5048859;28;20045;-70
2024/01/14 13:46:56;;;;;;;3.20;1.30;;;18.50;69.70;;;;;;5033230;28;20030;-69
2024/01/14 13:49:24;;;;;;;3.83;1.10;;;18.50;69.70;;;;;;5033194;28;20076;-69
2024/01/14 13:51:50;;;;;;;3.35;1.05;;;18.50;69.70;;;;;;5033097;28;20083;-69
2024/01/14 13:54:16;;;;;;;3.53;0.90;;;18.50;69.80;;;;;;5033487;28;20487;-69
2024/01/14 13:56:42;;;;;;;1.40;0.50;;;18.50;69.70;;;;;;5032724;28;20037;-69
2024/01/14 13:59:08;;;;;;;3.20;1.17;;;18.50;69.60;;;;;;5032997;28;20379;-69
2024/01/14 14:01:34;;;;;;;2.47;0.80;;;18.50;69.60;;;;;;5032629;28;20033;-70